Time;durP1;ratioP1;P1;durP2;ratioP2;P2;SDS_P1;SDS_P2;PMS_P1;PMS_P2;Temp;Humidity;BMP_temperature;BMP_pressure;BME280_temperature;BME280_humidity;BME280_pressure;Samples;Min_cycle;Max_cycle;Signal;HPM_P1;HPM_P2
2022/11/29 00:01:37;;;;;;;25.33;11.43;;;;;;;2.20;100.00;101558.78;5093550;28;20047;-76
2022/11/29 00:04:02;;;;;;;32.83;12.82;;;;;;;2.15;100.00;101558.16;5093478;28;20107;-76
2022/11/29 00:06:30;;;;;;;31.58;13.13;;;;;;;2.14;100.00;101560.84;5093093;28;20032;-76
2022/11/29 00:09:01;;;;;;;24.95;11.60;;;;;;;2.12;100.00;101560.91;5075252;28;20024;-76
2022/11/29 00:14:16;;;;;;;28.30;13.43;;;;;;;2.08;100.00;101568.03;5093155;28;20047;-76
2022/11/29 00:16:42;;;;;;;34.58;13.82;;;;;;;2.07;100.00;101562.88;5093341;28;20077;-77
2022/11/29 00:19:09;;;;;;;26.15;12.63;;;;;;;2.02;100.00;101560.44;5093172;28;20044;-76
2022/11/29 00:21:35;;;;;;;28.45;13.10;;;;;;;1.97;100.00;101569.44;5093347;28;20562;-76
2022/11/29 00:24:00;;;;;;;25.88;12.57;;;;;;;1.92;100.00;101567.00;5093450;28;20107;-77
2022/11/29 00:26:26;;;;;;;29.48;13.30;;;;;;;1.90;100.00;101568.84;5092456;28;20032;-77
2022/11/29 00:28:51;;;;;;;25.77;12.38;;;;;;;1.88;100.00;101565.41;5092634;28;20043;-78
2022/11/29 00:31:29;;;;;;;29.70;13.27;;;;;;;1.87;100.00;101568.97;5092616;28;20384;-77
2022/11/29 00:33:56;;;;;;;24.83;12.43;;;;;;;1.85;100.00;101563.81;5092389;28;20119;-77
2022/11/29 00:36:21;;;;;;;59.75;15.50;;;;;;;1.85;100.00;101566.44;5092535;28;20036;-77
2022/11/29 00:38:46;;;;;;;35.33;14.52;;;;;;;1.85;100.00;101571.69;5092909;28;20102;-77
2022/11/29 00:41:12;;;;;;;36.33;15.23;;;;;;;1.82;100.00;101579.69;5074868;28;20174;-77
2022/11/29 00:43:38;;;;;;;32.25;14.18;;;;;;;1.79;100.00;101584.19;5092618;28;20371;-77
2022/11/29 00:46:04;;;;;;;32.70;13.77;;;;;;;1.76;100.00;101579.91;5092619;28;20039;-77
2022/11/29 00:48:29;;;;;;;35.22;13.85;;;;;;;1.76;100.00;101578.16;5092824;28;20464;-77
2022/11/29 00:50:55;;;;;;;41.70;14.10;;;;;;;1.78;100.00;101575.47;5092932;28;20024;-77
2022/11/29 00:53:20;;;;;;;31.30;12.93;;;;;;;1.78;100.00;101580.72;5092506;28;20097;-77
2022/11/29 00:55:50;;;;;;;64.63;14.95;;;;;;;1.73;100.00;101578.28;5075015;28;20484;-76
2022/11/29 00:58:16;;;;;;;74.07;13.98;;;;;;;1.70;100.00;101578.41;5092626;28;20020;-78
2022/11/29 01:00:42;;;;;;;23.58;12.00;;;;;;;1.62;100.00;101580.50;5093117;28;20126;-76
2022/11/29 01:03:07;;;;;;;23.58;12.43;;;;;;;1.57;100.00;101578.06;5074678;28;20032;-77
2022/11/29 01:05:33;;;;;;;28.60;12.57;;;;;;;1.52;100.00;101584.41;5092811;28;20032;-78
2022/11/29 01:07:58;;;;;;;50.53;14.63;;;;;;;1.55;100.00;101586.91;5093525;28;20419;-77
2022/11/29 01:10:24;;;;;;;56.00;15.35;;;;;;;1.54;100.00;101582.59;5097658;28;20059;-76
2022/11/29 01:12:49;;;;;;;49.63;13.55;;;;;;;1.54;100.00;101587.84;5097285;28;20499;-76
2022/11/29 01:15:14;;;;;;;73.07;15.18;;;;;;;1.53;100.00;101594.81;5097143;28;20032;-77
2022/11/29 01:17:40;;;;;;;31.88;13.45;;;;;;;1.51;100.00;101586.19;5096308;28;20027;-76
2022/11/29 01:20:08;;;;;;;48.30;13.73;;;;;;;1.50;100.00;101589.72;5096722;28;20024;-76
2022/11/29 01:22:34;;;;;;;23.17;12.13;;;;;;;1.50;100.00;101592.34;5096184;28;20429;-76
2022/11/29 01:24:59;;;;;;;43.47;14.45;;;;;;;1.46;100.00;101589.91;5096731;28;20127;-76
2022/11/29 01:27:25;;;;;;;22.13;12.10;;;;;;;1.44;100.00;101595.22;5097034;28;20082;-77
2022/11/29 01:29:50;;;;;;;28.80;12.25;;;;;;;1.44;100.00;101597.00;5099394;28;20503;-77
2022/11/29 01:32:15;;;;;;;29.70;13.15;;;;;;;1.44;100.00;101595.22;5098056;28;20036;-76
2022/11/29 01:34:41;;;;;;;24.70;12.48;;;;;;;1.43;100.00;101593.50;5078927;28;20064;-77
2022/11/29 01:37:06;;;;;;;24.92;11.48;;;;;;;1.43;100.00;101597.88;5080212;28;20121;-77
2022/11/29 01:39:31;;;;;;;40.05;13.60;;;;;;;1.41;100.00;101596.19;5080709;28;20032;-77
2022/11/29 01:41:57;;;;;;;24.83;11.65;;;;;;;1.44;100.00;101612.72;5100210;28;20039;-78
2022/11/29 01:44:22;;;;;;;20.63;12.10;;;;;;;1.42;100.00;101607.53;5095851;28;20134;-78
2022/11/29 01:46:48;;;;;;;27.67;13.50;;;;;;;1.44;100.00;101604.84;5096009;28;20024;-77
2022/11/29 01:49:31;;;;;;;42.33;14.10;;;;;;;1.47;100.00;101607.34;5096358;28;20053;-77
2022/11/29 01:51:58;;;;;;;35.28;13.70;;;;;;;1.49;100.00;101606.34;5096035;28;20042;-77
2022/11/29 01:54:24;;;;;;;36.15;13.05;;;;;;;1.52;100.00;101618.50;5095470;28;20036;-77
2022/11/29 01:56:51;;;;;;;56.45;14.68;;;;;;;1.50;100.00;101615.94;5096027;28;20028;-77
2022/11/29 01:59:20;;;;;;;26.58;13.02;;;;;;;1.51;100.00;101622.06;5077512;28;20386;-77
2022/11/29 02:01:46;;;;;;;25.60;12.45;;;;;;;1.50;100.00;101625.59;5095221;28;20430;-77
2022/11/29 02:04:12;;;;;;;39.83;14.25;;;;;;;1.51;100.00;101615.03;5095849;28;20077;-76
2022/11/29 02:06:38;;;;;;;30.55;13.45;;;;;;;1.54;100.00;101619.31;5095604;28;20036;-77
2022/11/29 02:09:04;;;;;;;26.02;12.40;;;;;;;1.53;100.00;101615.81;5095715;28;20043;-77
2022/11/29 02:11:48;;;;;;;52.28;14.07;;;;;;;1.51;100.00;101620.28;5095463;28;20106;-77
2022/11/29 02:14:28;;;;;;;28.73;13.57;;;;;;;1.54;100.00;101629.81;5097084;28;20032;-77
2022/11/29 02:17:06;;;;;;;28.38;13.30;;;;;;;1.58;100.00;101624.38;5095263;28;20077;-77
2022/11/29 02:20:10;;;;;;;34.05;13.95;;;;;;;1.61;100.00;101628.63;5077456;28;20445;-77
2022/11/29 02:22:41;;;;;;;48.58;14.45;;;;;;;1.67;100.00;101631.03;5056094;28;20064;-77
2022/11/29 02:25:25;;;;;;;;;;;;;;;1.71;100.00;101631.72;5095838;28;20055;-77
2022/11/29 02:28:12;;;;;;;33.92;13.23;;;;;;;1.74;100.00;101626.34;5094852;28;19908;-77
2022/11/29 02:30:58;;;;;;;25.85;13.43;;;;;;;1.73;100.00;101630.75;5094696;28;20054;-77
2022/11/29 02:33:56;;;;;;;33.95;13.80;;;;;;;1.76;100.00;101633.25;5095119;28;20051;-77
2022/11/29 02:37:02;;;;;;;34.75;13.50;;;;;;;1.79;100.00;101641.91;5095253;28;20028;-77
2022/11/29 02:39:49;;;;;;;35.13;14.30;;;;;;;1.78;100.00;101648.94;5095219;28;20028;-77
2022/11/29 02:42:47;;;;;;;144.80;18.48;;;;;;;1.78;100.00;101656.81;5095280;28;20071;-77
2022/11/29 02:45:41;;;;;;;29.85;14.27;;;;;;;1.77;100.00;101658.56;5094981;28;20422;-77
2022/11/29 02:48:31;;;;;;;42.15;15.07;;;;;;;1.75;100.00;101654.31;5076787;28;20040;-77
2022/11/29 02:51:17;;;;;;;30.75;13.90;;;;;;;1.72;100.00;101663.16;5076699;28;20468;-77
2022/11/29 02:54:03;;;;;;;40.85;14.27;;;;;;;1.68;100.00;101661.56;5094923;28;20071;-77
2022/11/29 02:56:35;;;;;;;30.80;13.88;;;;;;;1.66;100.00;101660.78;5094980;28;20028;-77
2022/11/29 02:59:08;;;;;;;35.20;15.23;;;;;;;1.67;100.00;101662.50;5094827;28;20050;-77
2022/11/29 03:01:47;;;;;;;31.67;14.77;;;;;;;1.67;100.00;101659.88;5094208;28;20495;-77
2022/11/29 03:04:34;;;;;;;35.55;14.93;;;;;;;1.68;100.00;101661.56;5094700;28;20035;-77
2022/11/29 03:07:14;;;;;;;60.50;16.50;;;;;;;1.68;100.00;101666.81;5094984;28;20388;-77
2022/11/29 03:09:53;;;;;;;39.65;14.20;;;;;;;1.67;100.00;101674.75;5094279;28;20039;-77
2022/11/29 03:12:39;;;;;;;27.55;13.82;;;;;;;1.62;100.00;101674.09;5094485;28;20024;-77
2022/11/29 03:15:04;;;;;;;33.10;15.02;;;;;;;1.61;100.00;101678.47;5094354;28;20469;-77
2022/11/29 03:17:39;;;;;;;33.63;14.43;;;;;;;1.63;100.00;101679.28;5094451;28;20082;-77
2022/11/29 03:20:41;;;;;;;31.98;14.50;;;;;;;1.63;100.00;101681.91;5095056;28;20054;-76
2022/11/29 03:23:20;;;;;;;35.55;15.05;;;;;;;1.65;100.00;101681.84;5094537;28;20464;-76
2022/11/29 03:25:52;;;;;;;32.58;14.88;;;;;;;1.64;100.00;101686.22;5093899;28;20066;-76
2022/11/29 03:28:42;;;;;;;39.25;14.73;;;;;;;1.64;100.00;101688.81;5094255;28;20032;-77
2022/11/29 03:31:14;;;;;;;40.22;14.57;;;;;;;1.64;100.00;101688.00;5093937;28;20093;-77
2022/11/29 03:33:58;;;;;;;32.17;14.23;;;;;;;1.62;100.00;101690.66;5093087;28;20113;-77
2022/11/29 03:36:37;;;;;;;26.38;12.98;;;;;;;1.59;100.00;101688.16;5093875;28;20108;-77
2022/11/29 03:39:06;;;;;;;27.33;13.48;;;;;;;1.59;100.00;101698.66;5094169;28;20036;-77
2022/11/29 03:42:04;;;;;;;31.73;14.15;;;;;;;1.57;100.00;101698.72;5094053;28;20032;-76
2022/11/29 03:44:53;;;;;;;34.05;14.10;;;;;;;1.58;100.00;101696.94;5054368;28;20138;-77
2022/11/29 03:47:27;;;;;;;33.15;13.90;;;;;;;1.59;100.00;101698.66;5075945;28;20028;-76
2022/11/29 03:50:21;;;;;;;50.53;15.02;;;;;;;1.61;100.00;101696.81;5075217;28;20028;-77
2022/11/29 03:53:06;;;;;;;35.35;13.55;;;;;;;1.61;100.00;101704.69;5089900;28;20040;-77
2022/11/29 03:55:56;;;;;;;30.17;13.80;;;;;;;1.61;100.00;101706.47;5093468;28;20024;-77
2022/11/29 03:58:30;;;;;;;34.67;14.52;;;;;;;1.59;100.00;101715.25;5093514;28;20032;-77
2022/11/29 04:01:32;;;;;;;47.22;15.45;;;;;;;1.58;100.00;101707.44;5093018;28;20036;-77
2022/11/29 04:04:31;;;;;;;45.80;15.80;;;;;;;1.60;100.00;101708.25;5092764;28;20036;-77
2022/11/29 04:07:33;;;;;;;36.88;14.52;;;;;;;1.59;100.00;101712.63;5093042;28;20052;-77
2022/11/29 04:10:36;;;;;;;30.02;13.77;;;;;;;1.58;100.00;101720.56;5074645;28;20067;-77
2022/11/29 04:13:23;;;;;;;31.02;13.80;;;;;;;1.59;100.00;101719.66;5092978;28;20027;-76
2022/11/29 04:16:01;;;;;;;27.77;13.23;;;;;;;1.59;100.00;101725.75;5074931;28;20032;-77
2022/11/29 04:18:57;;;;;;;43.80;14.98;;;;;;;1.65;100.00;101727.28;5093296;28;20024;-77
2022/11/29 04:21:49;;;;;;;38.35;13.65;;;;;;;1.69;100.00;101733.28;5093095;28;20106;-77
2022/11/29 04:24:44;;;;;;;37.03;13.48;;;;;;;1.70;100.00;101737.59;5093381;28;20042;-76
2022/11/29 04:27:29;;;;;;;41.97;14.13;;;;;;;1.69;100.00;101736.75;5093154;28;20089;-77
2022/11/29 04:30:18;;;;;;;30.48;14.32;;;;;;;1.68;100.00;101735.03;5092708;28;20028;-77
2022/11/29 04:32:53;;;;;;;30.42;14.02;;;;;;;1.68;100.00;101745.53;5074147;28;20110;-81
2022/11/29 04:35:43;;;;;;;66.20;15.63;;;;;;;1.71;100.00;101739.31;5093142;28;20035;-77
2022/11/29 04:38:52;;;;;;;41.47;14.15;;;;;;;1.72;100.00;101741.88;5092561;28;20027;-76
2022/11/29 04:41:51;;;;;;;48.50;15.10;;;;;;;1.73;100.00;101735.72;5013627;28;20126;-76
2022/11/29 04:44:50;;;;;;;47.00;15.35;;;;;;;1.77;100.00;101742.53;5092391;28;20028;-77
2022/11/29 04:47:27;;;;;;;85.32;16.80;;;;;;;1.78;100.00;101751.28;5074795;28;20024;-77
2022/11/29 04:50:22;;;;;;;54.33;15.05;;;;;;;1.79;100.00;101752.13;5092342;28;20028;-77
2022/11/29 04:53:00;;;;;;;44.47;15.38;;;;;;;1.79;100.00;101747.72;5074454;28;20122;-77
2022/11/29 04:55:40;;;;;;;50.88;16.55;;;;;;;1.82;100.00;101762.50;5092646;28;20138;-76
2022/11/29 04:58:11;;;;;;;40.25;15.02;;;;;;;1.84;100.00;101753.66;5092281;28;20038;-76
2022/11/29 05:00:54;;;;;;;45.60;16.40;;;;;;;1.85;100.00;101758.00;5092338;28;20085;-76
2022/11/29 05:03:37;;;;;;;39.53;15.20;;;;;;;1.89;100.00;101753.47;5092829;28;20035;-76
2022/11/29 05:06:23;;;;;;;49.63;16.67;;;;;;;1.93;100.00;101765.56;5092313;28;20491;-77
2022/11/29 05:09:05;;;;;;;74.50;17.65;;;;;;;1.95;100.00;101758.47;5092231;28;20056;-81
2022/11/29 05:11:49;;;;;;;55.15;18.15;;;;;;;1.99;100.00;101759.22;5092830;28;20456;-77
2022/11/29 05:14:26;;;;;;;40.97;17.25;;;;;;;2.03;100.00;101764.28;5092603;28;20174;-76
2022/11/29 05:17:29;;;;;;;65.65;19.42;;;;;;;2.09;100.00;101765.78;5092087;28;20043;-77
2022/11/29 05:20:03;;;;;;;43.00;18.00;;;;;;;2.14;100.00;101773.53;5092049;28;20064;-76
2022/11/29 05:22:43;;;;;;;54.92;19.63;;;;;;;2.17;100.00;101771.59;5092548;28;20036;-76
2022/11/29 05:25:30;;;;;;;46.95;18.15;;;;;;;2.19;100.00;101775.00;5091975;28;20062;-77
2022/11/29 05:28:04;;;;;;;48.08;17.98;;;;;;;2.24;100.00;101780.06;5074105;28;20086;-77
2022/11/29 05:31:04;;;;;;;55.13;17.75;;;;;;;2.27;100.00;101786.09;5092332;28;20032;-76
2022/11/29 05:34:07;;;;;;;66.82;18.58;;;;;;;2.26;100.00;101783.53;5074192;28;20048;-77
2022/11/29 05:36:48;;;;;;;58.42;17.83;;;;;;;2.25;100.00;101787.06;5092340;28;20058;-77
2022/11/29 05:39:29;;;;;;;46.70;17.60;;;;;;;2.24;100.00;101790.59;5091733;28;20028;-77
2022/11/29 05:42:12;;;;;;;71.80;19.08;;;;;;;2.21;100.00;101788.09;5091771;28;20025;-76
2022/11/29 05:44:49;;;;;;;41.20;16.70;;;;;;;2.21;100.00;101790.72;5092337;28;20484;-75
2022/11/29 05:47:45;;;;;;;56.10;17.73;;;;;;;2.17;100.00;101795.25;5091903;28;20051;-75
2022/11/29 05:50:16;;;;;;;72.57;18.30;;;;;;;2.14;100.00;101798.00;5080989;28;20505;-76
2022/11/29 05:52:47;;;;;;;49.80;17.85;;;;;;;2.13;100.00;101805.94;5092439;28;20085;-75
2022/11/29 05:56:05;;;;;;;45.08;18.00;;;;;;;2.13;100.00;101813.81;5092157;28;20040;-76
2022/11/29 05:58:57;;;;;;;47.92;18.35;;;;;;;2.11;100.00;101811.25;4994109;28;20030;-76
2022/11/29 06:01:24;;;;;;;36.22;15.82;;;;;;;2.10;100.00;101817.41;5096064;28;20064;-75
2022/11/29 06:03:55;;;;;;;48.50;17.33;;;;;;;2.07;100.00;101815.75;5096563;28;20026;-76
2022/11/29 06:06:38;;;;;;;56.45;17.20;;;;;;;2.04;100.00;101815.88;5096033;28;20035;-76
2022/11/29 06:09:11;;;;;;;46.30;16.92;;;;;;;1.99;100.00;101827.47;5095325;28;20115;-76
2022/11/29 06:11:41;;;;;;;61.42;18.05;;;;;;;1.95;100.00;101824.09;5095591;28;20122;-75
2022/11/29 06:14:27;;;;;;;45.53;17.40;;;;;;;1.90;100.00;101844.44;5095436;28;20106;-75
2022/11/29 06:17:28;;;;;;;106.50;21.08;;;;;;;1.83;100.00;101838.56;5095573;28;20081;-76
2022/11/29 06:20:14;;;;;;;59.58;18.90;;;;;;;1.77;100.00;101844.03;5042076;28;20416;-75
2022/11/29 06:22:56;;;;;;;65.05;18.08;;;;;;;1.72;100.00;101848.63;5095454;28;20161;-76
2022/11/29 06:25:48;;;;;;;45.25;18.30;;;;;;;1.64;100.00;101851.50;5095261;28;20052;-75
2022/11/29 06:28:37;;;;;;;62.72;19.17;;;;;;;1.61;100.00;101856.00;5095110;28;20081;-77
2022/11/29 06:31:20;;;;;;;44.70;17.23;;;;;;;1.52;100.00;101851.94;5094625;28;20431;-76
2022/11/29 06:34:16;;;;;;;47.10;18.98;;;;;;;1.46;100.00;101868.75;5094771;28;20056;-73
2022/11/29 06:36:53;;;;;;;46.45;18.42;;;;;;;1.43;100.00;101865.41;5095063;28;20536;-74
2022/11/29 06:39:18;;;;;;;43.38;18.00;;;;;;;1.40;100.00;101867.25;5094908;28;20111;-75
2022/11/29 06:41:44;;;;;;;51.95;19.90;;;;;;;1.38;100.00;101855.09;5092049;28;20447;-78
2022/11/29 06:44:10;;;;;;;49.67;19.92;;;;;;;1.37;100.00;101864.72;5073797;28;20036;-75
2022/11/29 06:46:46;;;;;;;50.28;20.35;;;;;;;1.39;100.00;101869.91;5092601;28;20077;-73
2022/11/29 06:49:23;;;;;;;47.08;19.73;;;;;;;1.40;100.00;101874.22;5091753;28;20149;-74
2022/11/29 06:52:10;;;;;;;50.13;20.67;;;;;;;1.42;100.00;101880.31;5092266;28;20119;-74
2022/11/29 06:54:55;;;;;;;47.63;19.77;;;;;;;1.44;100.00;101888.13;5091679;28;20047;-73
2022/11/29 06:57:38;;;;;;;102.55;22.55;;;;;;;1.45;100.00;101888.06;5091603;28;20031;-74
2022/11/29 07:00:17;;;;;;;61.22;21.50;;;;;;;1.46;100.00;101889.75;5091975;28;20036;-74
2022/11/29 07:03:10;;;;;;;54.67;20.70;;;;;;;1.46;100.00;101886.28;5091967;28;20291;-76
2022/11/29 07:05:35;;;;;;;48.53;21.13;;;;;;;1.42;100.00;101890.78;5078290;28;20047;-75
2022/11/29 07:08:05;;;;;;;55.45;21.30;;;;;;;1.42;100.00;101896.03;5090538;28;20028;-77
2022/11/29 07:10:33;;;;;;;54.83;22.50;;;;;;;1.41;100.00;101899.56;5091284;28;20119;-78
2022/11/29 07:12:59;;;;;;;57.60;21.98;;;;;;;1.41;100.00;101905.66;5091415;28;20483;-76
2022/11/29 07:15:25;;;;;;;50.85;22.77;;;;;;;1.41;100.00;101907.44;5091303;28;20207;-75
2022/11/29 07:18:17;;;;;;;122.25;24.73;;;;;;;1.38;100.00;101910.16;5090921;28;20056;-76
2022/11/29 07:21:09;;;;;;;61.72;21.83;;;;;;;1.39;100.00;101917.13;5073203;28;20077;-75
2022/11/29 07:23:44;;;;;;;73.30;21.80;;;;;;;1.35;100.00;101918.97;5037271;28;20046;-75
2022/11/29 07:27:03;;;;;;;53.92;23.00;;;;;;;1.38;100.00;101926.75;5074066;28;20036;-74
2022/11/29 07:29:50;;;;;;;51.65;20.33;;;;;;;1.38;100.00;101936.38;5049732;28;20506;-75
2022/11/29 07:32:46;;;;;;;73.60;22.67;;;;;;;1.39;100.00;101938.09;5090966;28;20352;-74
2022/11/29 07:35:11;;;;;;;76.00;22.35;;;;;;;1.40;100.00;101935.44;5090856;28;20036;-76
2022/11/29 07:38:14;;;;;;;58.40;20.45;;;;;;;1.40;100.00;101942.41;5091219;28;20077;-75
2022/11/29 07:41:02;;;;;;;117.03;23.85;;;;;;;1.40;100.00;101950.28;5091258;28;20032;-75
2022/11/29 07:43:37;;;;;;;56.28;22.15;;;;;;;1.41;100.00;101952.00;5090366;28;20113;-75
2022/11/29 07:46:02;;;;;;;55.70;22.10;;;;;;;1.44;100.00;101956.31;5090928;28;20039;-76
2022/11/29 07:48:28;;;;;;;61.42;23.50;;;;;;;1.48;100.00;101950.91;5090505;28;20031;-75
2022/11/29 07:50:54;;;;;;;59.80;23.05;;;;;;;1.51;100.00;101958.66;5090680;28;20032;-75
2022/11/29 07:53:21;;;;;;;52.88;22.70;;;;;;;1.54;100.00;101962.94;5072180;28;20349;-75
2022/11/29 07:55:48;;;;;;;58.92;22.23;;;;;;;1.60;100.00;101967.97;5092344;28;20123;-76
2022/11/29 07:58:15;;;;;;;64.53;24.00;;;;;;;1.61;100.00;101976.69;5090425;28;20075;-76
2022/11/29 08:00:41;;;;;;;58.72;22.95;;;;;;;1.65;100.00;101973.06;5090683;28;20047;-75
2022/11/29 08:03:08;;;;;;;61.08;23.17;;;;;;;1.69;100.00;101972.06;5090789;28;20032;-75
2022/11/29 08:05:34;;;;;;;57.53;23.70;;;;;;;1.72;100.00;101969.31;5089852;28;20428;-75
2022/11/29 08:08:00;;;;;;;57.85;22.23;;;;;;;1.77;100.00;101975.25;5090468;28;20040;-76
2022/11/29 08:10:26;;;;;;;84.55;23.98;;;;;;;1.80;100.00;101971.66;5090005;28;20104;-76
2022/11/29 08:12:52;;;;;;;73.57;24.38;;;;;;;1.86;100.00;101981.94;5090243;28;20036;-75
2022/11/29 08:15:19;;;;;;;63.45;23.60;;;;;;;1.90;100.00;101976.53;5071976;28;20080;-76
2022/11/29 08:17:45;;;;;;;72.47;24.25;;;;;;;1.96;100.00;101975.44;5090186;28;20036;-75
2022/11/29 08:20:12;;;;;;;65.88;22.90;;;;;;;2.02;100.00;101974.38;5088229;28;20047;-75
2022/11/29 08:22:37;;;;;;;63.63;22.48;;;;;;;2.07;100.00;101981.16;5072047;28;20096;-75
2022/11/29 08:25:04;;;;;;;73.65;22.35;;;;;;;2.13;100.00;101976.59;5092770;28;20032;-75
2022/11/29 08:27:30;;;;;;;55.10;21.20;;;;;;;2.19;100.00;101973.75;5074396;28;20043;-75
2022/11/29 08:29:55;;;;;;;67.85;22.05;;;;;;;2.24;100.00;101987.53;5093021;28;20024;-75
2022/11/29 08:32:21;;;;;;;77.97;21.98;;;;;;;2.28;100.00;101990.03;5092186;28;20080;-75
2022/11/29 08:34:46;;;;;;;59.10;21.02;;;;;;;2.34;100.00;101988.06;5071218;28;20147;-75
2022/11/29 08:37:11;;;;;;;70.55;22.83;;;;;;;2.36;100.00;101987.13;5072439;28;20052;-75
2022/11/29 08:39:37;;;;;;;112.45;23.83;;;;;;;2.41;100.00;101982.53;5072215;28;20384;-75
2022/11/29 08:42:02;;;;;;;70.65;22.00;;;;;;;2.44;100.00;101992.91;5071424;28;20040;-74
2022/11/29 08:44:28;;;;;;;50.90;20.92;;;;;;;2.49;100.00;101995.38;5072155;28;20028;-76
2022/11/29 08:49:59;;;;;;;93.55;21.98;;;;;;;2.56;100.00;102002.09;5072207;28;20055;-74
2022/11/29 08:55:15;;;;;;;53.72;20.63;;;;;;;2.61;100.00;102021.19;5040569;28;20049;-74
2022/11/29 08:57:41;;;;;;;44.75;19.33;;;;;;;2.65;100.00;102017.50;5071994;28;20462;-76
2022/11/29 09:00:07;;;;;;;85.72;22.40;;;;;;;2.70;100.00;102006.81;5072148;28;20039;-74
2022/11/29 09:02:34;;;;;;;107.43;22.95;;;;;;;2.75;100.00;102019.81;5071683;28;20473;-74
2022/11/29 09:04:59;;;;;;;68.57;22.00;;;;;;;2.81;100.00;102015.16;5072247;28;20488;-75
2022/11/29 09:07:24;;;;;;;95.70;21.48;;;;;;;2.87;100.00;102013.22;5071611;28;20063;-75
2022/11/29 09:09:50;;;;;;;78.10;21.48;;;;;;;2.94;100.00;102019.91;5072355;28;20029;-75
2022/11/29 09:12:15;;;;;;;91.65;22.52;;;;;;;3.00;100.00;102028.44;5072291;28;20029;-75
2022/11/29 09:14:40;;;;;;;166.55;24.08;;;;;;;3.02;100.00;102023.13;5070589;28;20028;-75
2022/11/29 09:17:06;;;;;;;134.93;21.77;;;;;;;3.05;100.00;102030.88;5072165;28;20040;-75
2022/11/29 09:19:32;;;;;;;89.35;20.63;;;;;;;3.03;100.00;102032.72;5071713;28;20082;-76
2022/11/29 09:21:57;;;;;;;75.57;21.70;;;;;;;3.07;100.00;102034.28;5072371;28;20090;-75
2022/11/29 09:24:22;;;;;;;68.18;21.38;;;;;;;3.17;100.00;102046.16;5072050;28;20078;-76
2022/11/29 09:26:48;;;;;;;98.05;22.30;;;;;;;3.29;100.00;102043.97;5070809;28;20040;-75
2022/11/29 09:29:15;;;;;;;84.57;22.13;;;;;;;3.39;100.00;102047.06;5070940;28;20028;-75
2022/11/29 09:31:42;;;;;;;108.90;22.10;;;;;;;3.47;100.00;102051.09;5073219;28;20032;-75
2022/11/29 09:34:07;;;;;;;68.00;19.05;;;;;;;3.55;100.00;102048.13;5088538;28;20062;-74
2022/11/29 09:36:33;;;;;;;77.22;20.17;;;;;;;3.60;100.00;102058.47;5095892;28;20044;-76
2022/11/29 09:39:01;;;;;;;151.13;20.63;;;;;;;3.64;100.00;102055.69;5078081;28;20521;-75
2022/11/29 09:41:44;;;;;;;99.18;19.15;;;;;;;3.68;100.00;102067.75;5095657;28;20074;-76
2022/11/29 09:44:32;;;;;;;79.90;18.85;;;;;;;3.71;100.00;102074.69;5096236;28;20028;-75
2022/11/29 09:47:03;;;;;;;137.85;20.30;;;;;;;3.72;100.00;102068.50;5095316;28;20047;-75
2022/11/29 09:49:40;;;;;;;80.22;18.52;;;;;;;3.78;100.00;102070.88;5095706;28;20028;-75
2022/11/29 09:52:32;;;;;;;108.13;21.05;;;;;;;3.88;100.00;102071.31;5096130;28;20032;-75
2022/11/29 09:55:04;;;;;;;97.82;20.98;;;;;;;4.01;100.00;102069.88;5095989;28;20036;-75
2022/11/29 09:57:30;;;;;;;73.47;19.38;;;;;;;4.08;100.00;102070.47;5095569;28;20028;-76
2022/11/29 10:00:05;;;;;;;69.95;17.35;;;;;;;4.16;100.00;102072.78;5095759;28;20141;-76
2022/11/29 10:02:44;;;;;;;79.65;18.10;;;;;;;4.21;100.00;102084.84;5095426;28;20111;-77
2022/11/29 10:05:19;;;;;;;60.38;18.35;;;;;;;4.17;100.00;102085.88;5095912;28;20021;-75
2022/11/29 10:07:58;;;;;;;68.60;18.83;;;;;;;4.22;100.00;102085.69;5095249;28;20028;-76
2022/11/29 10:10:31;;;;;;;54.60;20.30;;;;;;;4.32;100.00;102083.50;5095811;28;20545;-76
2022/11/29 10:13:04;;;;;;;72.70;20.52;;;;;;;4.46;100.00;102081.09;5095607;28;20107;-76
2022/11/29 10:15:40;;;;;;;64.80;18.83;;;;;;;4.54;100.00;102076.34;5077042;28;20028;-76
2022/11/29 10:18:22;;;;;;;44.50;19.70;;;;;;;4.61;100.00;102078.69;5095557;28;20081;-76
2022/11/29 10:20:51;;;;;;;59.95;19.88;;;;;;;4.73;100.00;102075.50;5094700;28;20028;-76
2022/11/29 10:23:49;;;;;;;68.47;20.17;;;;;;;4.80;100.00;102076.06;5095335;28;20027;-76
2022/11/29 10:26:15;;;;;;;42.38;17.98;;;;;;;4.97;100.00;102073.50;5095574;28;20460;-76
2022/11/29 10:28:44;;;;;;;40.63;18.38;;;;;;;5.23;100.00;102074.03;5095255;28;20024;-76
2022/11/29 10:31:28;;;;;;;48.72;18.98;;;;;;;5.28;100.00;102074.66;5095523;28;20024;-76
2022/11/29 10:33:55;;;;;;;47.80;17.42;;;;;;;5.38;100.00;102075.06;5094486;28;20531;-76
2022/11/29 10:36:39;;;;;;;44.08;17.80;;;;;;;5.35;100.00;102077.88;5094999;28;20031;-76
2022/11/29 10:39:36;;;;;;;41.28;18.13;;;;;;;5.28;100.00;102075.53;5095323;28;20020;-76
2022/11/29 10:42:03;;;;;;;43.33;19.38;;;;;;;5.29;100.00;102077.22;5074020;28;20074;-76
2022/11/29 10:44:30;;;;;;;45.95;19.17;;;;;;;5.32;100.00;102075.38;5094108;28;20028;-76
2022/11/29 10:46:59;;;;;;;51.20;20.35;;;;;;;5.41;100.00;102081.06;5094627;28;20100;-76
2022/11/29 10:49:27;;;;;;;49.38;20.77;;;;;;;5.54;100.00;102091.00;5094888;28;20150;-75
2022/11/29 10:51:52;;;;;;;55.17;22.35;;;;;;;5.72;100.00;102079.53;5094454;28;20320;-76
2022/11/29 10:54:26;;;;;;;47.58;21.20;;;;;;;5.92;100.00;102081.16;5094942;28;20043;-75
2022/11/29 10:56:54;;;;;;;53.60;20.85;;;;;;;6.13;100.00;102087.16;5094212;28;20369;-75
2022/11/29 10:59:25;;;;;;;42.17;18.98;;;;;;;6.28;100.00;102088.13;5094750;28;20447;-76
2022/11/29 11:01:51;;;;;;;31.67;17.38;;;;;;;6.23;100.00;102091.97;5094449;28;20032;-75
2022/11/29 11:04:26;;;;;;;36.40;17.67;;;;;;;6.22;100.00;102088.47;5094460;28;20039;-75
2022/11/29 11:06:55;;;;;;;34.88;17.95;;;;;;;6.24;100.00;102091.03;5094398;28;20038;-76
2022/11/29 11:09:23;;;;;;;36.05;17.85;;;;;;;6.20;100.00;102089.50;5094771;28;20498;-75
2022/11/29 11:11:59;;;;;;;36.90;17.73;;;;;;;6.22;100.00;102088.47;5075470;28;20039;-75
2022/11/29 11:14:36;;;;;;;31.65;17.88;;;;;;;6.26;100.00;102091.81;5094265;28;20032;-75
2022/11/29 11:17:30;;;;;;;37.92;20.63;;;;;;;6.33;100.00;102091.41;5094669;28;20028;-75
2022/11/29 11:20:05;;;;;;;32.10;18.83;;;;;;;6.40;100.00;102096.38;5093896;28;20038;-75
2022/11/29 11:22:32;;;;;;;36.97;18.33;;;;;;;6.47;100.00;102089.81;5094502;28;20053;-75
2022/11/29 11:25:19;;;;;;;36.60;19.08;;;;;;;6.73;100.00;102092.84;5094204;28;20085;-76
2022/11/29 11:27:45;;;;;;;31.55;16.35;;;;;;;6.97;100.00;102099.47;5079132;28;20048;-74
2022/11/29 11:30:21;;;;;;;32.47;17.70;;;;;;;7.16;100.00;102090.47;5094248;28;20426;-76
2022/11/29 11:33:07;;;;;;;28.50;17.60;;;;;;;7.43;100.00;102097.81;5093346;28;20463;-76
2022/11/29 11:35:33;;;;;;;22.08;15.70;;;;;;;7.53;100.00;102097.19;5094103;28;20028;-75
2022/11/29 11:37:58;;;;;;;26.98;16.52;;;;;;;7.53;100.00;102096.34;5093598;28;20035;-75
2022/11/29 11:40:30;;;;;;;24.02;14.93;;;;;;;7.55;100.00;102097.97;5090379;28;20040;-75
2022/11/29 11:42:58;;;;;;;22.77;14.77;;;;;;;7.39;100.00;102102.44;5090863;28;20367;-76
2022/11/29 11:45:33;;;;;;;24.48;15.38;;;;;;;7.33;100.00;102100.09;5091251;28;20438;-73
2022/11/29 11:48:04;;;;;;;26.15;15.38;;;;;;;7.35;100.00;102107.03;5072509;28;20465;-76
2022/11/29 11:50:33;;;;;;;25.58;16.20;;;;;;;7.39;100.00;102097.13;5091201;28;20428;-74
2022/11/29 11:53:34;;;;;;;24.30;15.52;;;;;;;7.44;100.00;102103.00;5090050;28;20457;-76
2022/11/29 11:56:04;;;;;;;29.45;14.55;;;;;;;7.46;100.00;102109.06;5090237;28;20038;-75
2022/11/29 11:58:37;;;;;;;23.55;16.15;;;;;;;7.51;100.00;102106.13;5091244;28;20043;-77